createdAt,value
2022-12-12T00:02:24.088Z,-4.90
2022-12-12T00:07:27.044Z,-5.01
2022-12-12T00:12:31.304Z,-5.01
2022-12-12T00:17:34.372Z,-4.98
2022-12-12T00:22:37.343Z,-4.92
2022-12-12T00:27:41.674Z,-5.00
2022-12-12T00:32:44.621Z,-4.90
2022-12-12T00:37:47.835Z,-5.00
2022-12-12T00:42:52.114Z,-4.94
2022-12-12T00:47:55.951Z,-5.06
2022-12-12T00:52:59.424Z,-5.15
2022-12-12T00:58:03.714Z,-5.05
2022-12-12T01:03:06.695Z,-5.02
2022-12-12T01:08:09.673Z,-4.89
2022-12-12T01:13:13.928Z,-4.94
2022-12-12T01:18:16.939Z,-4.85
2022-12-12T01:23:19.893Z,-5.02
2022-12-12T01:28:24.151Z,-4.96
2022-12-12T01:33:27.585Z,-4.98
2022-12-12T01:38:30.526Z,-4.90
2022-12-12T01:43:35.235Z,-4.96
2022-12-12T01:48:43.035Z,-4.93
2022-12-12T01:53:47.169Z,-4.81
2022-12-12T01:58:54.216Z,-4.96
2022-12-12T02:03:58.236Z,-5.05
2022-12-12T02:09:05.035Z,-4.97
2022-12-12T02:14:09.409Z,-5.09
2022-12-12T02:19:53.361Z,-5.03
2022-12-12T02:25:17.345Z,-4.93
2022-12-12T02:30:28.023Z,-4.95
2022-12-12T02:35:42.844Z,-4.91
2022-12-12T02:40:52.922Z,-4.86
2022-12-12T02:45:59.989Z,-4.90
2022-12-12T02:51:07.733Z,-5.07
2022-12-12T02:56:50.591Z,-5.15
2022-12-12T03:02:22.422Z,-5.19
2022-12-12T03:07:50.078Z,-5.08
2022-12-12T03:13:00.833Z,-4.97
2022-12-12T03:18:17.613Z,-4.82
2022-12-12T03:23:28.434Z,-4.82
2022-12-12T03:28:35.923Z,-4.92
2022-12-12T03:33:43.296Z,-5.22
2022-12-12T03:38:57.033Z,-5.29
2022-12-12T03:44:06.825Z,-5.02
2022-12-12T03:49:14.185Z,-5.03
2022-12-12T03:54:23.695Z,-5.09
2022-12-12T03:59:34.000Z,-5.03
2022-12-12T04:04:42.875Z,-4.84
2022-12-12T04:10:04.710Z,-4.93
2022-12-12T04:15:32.302Z,-5.02
2022-12-12T04:21:01.573Z,-4.90
2022-12-12T04:26:30.728Z,-4.87
2022-12-12T04:31:37.718Z,-5.05
2022-12-12T04:36:42.435Z,-4.99
2022-12-12T04:41:49.669Z,-5.05
2022-12-12T04:46:56.208Z,-5.12
2022-12-12T04:52:03.662Z,-5.12
2022-12-12T04:57:11.449Z,-5.05
2022-12-12T05:02:25.636Z,-4.91
2022-12-12T05:07:39.750Z,-4.88
2022-12-12T05:12:49.269Z,-4.89
2022-12-12T05:17:58.123Z,-4.84
2022-12-12T05:23:01.104Z,-5.02
2022-12-12T05:28:05.798Z,-4.89
2022-12-12T05:33:08.747Z,-5.06
2022-12-12T05:38:11.695Z,-4.88
2022-12-12T05:43:16.012Z,-4.81
2022-12-12T05:48:24.102Z,-4.79
2022-12-12T05:53:27.567Z,-4.81
2022-12-12T05:58:31.858Z,-4.77
2022-12-12T06:03:35.477Z,-4.91
2022-12-12T06:08:38.567Z,-4.65
2022-12-12T06:13:42.891Z,-4.98
2022-12-12T06:18:46.347Z,-4.82
2022-12-12T06:23:49.830Z,-4.91
2022-12-12T06:28:54.164Z,-4.89
2022-12-12T06:33:57.113Z,-4.79
2022-12-12T06:39:02.096Z,-4.93
2022-12-12T06:44:07.214Z,-4.90
2022-12-12T06:49:10.611Z,-4.98
2022-12-12T06:54:14.335Z,-4.75
2022-12-12T06:59:18.715Z,-4.80
2022-12-12T07:04:21.575Z,-4.82
2022-12-12T07:09:24.556Z,-4.79
2022-12-12T07:14:28.810Z,-4.70
2022-12-12T07:19:31.713Z,-4.69
2022-12-12T07:24:34.661Z,-4.79
2022-12-12T07:29:38.956Z,-4.59
2022-12-12T07:34:41.880Z,-4.65
2022-12-12T07:39:44.806Z,-4.48
2022-12-12T07:44:49.065Z,-4.47
2022-12-12T07:49:52.015Z,-4.56
2022-12-12T07:54:55.034Z,-4.39
2022-12-12T07:59:59.357Z,-4.17
2022-12-12T08:05:02.378Z,-4.36
2022-12-12T08:10:06.225Z,-4.14
2022-12-12T08:15:16.256Z,-4.29
2022-12-12T08:20:19.219Z,-4.06
2022-12-12T08:25:22.162Z,-3.77
2022-12-12T08:30:26.512Z,-4.00
2022-12-12T08:35:30.607Z,-3.85
2022-12-12T08:40:35.926Z,-3.98
2022-12-12T08:45:40.590Z,-3.68
2022-12-12T08:50:43.723Z,-3.68
2022-12-12T08:55:46.849Z,-3.58
2022-12-12T09:00:51.258Z,-3.72
2022-12-12T09:05:54.159Z,-3.65
2022-12-12T09:10:57.048Z,-3.63
2022-12-12T09:16:01.427Z,-3.47
2022-12-12T09:21:04.882Z,-3.57
2022-12-12T09:26:09.214Z,-3.45
2022-12-12T09:31:14.521Z,-3.25
2022-12-12T09:36:17.870Z,-2.88
2022-12-12T09:41:22.628Z,-2.97
2022-12-12T09:46:34.453Z,-2.98
2022-12-12T09:51:37.815Z,-2.65
2022-12-12T09:56:48.841Z,-2.62
2022-12-12T10:02:05.204Z,-2.51
2022-12-12T10:07:17.782Z,-2.37
2022-12-12T10:12:23.014Z,-2.56
2022-12-12T10:17:31.454Z,-2.56
2022-12-12T10:22:41.375Z,-2.77
2022-12-12T10:27:44.711Z,-2.76
2022-12-12T10:33:10.445Z,-3.12
2022-12-12T10:38:32.522Z,-3.06
2022-12-12T10:43:45.546Z,-2.74
2022-12-12T10:48:50.364Z,-2.96
2022-12-12T10:53:53.680Z,-2.70
2022-12-12T10:58:58.628Z,-2.59
2022-12-12T11:04:03.538Z,-2.49
2022-12-12T11:09:10.069Z,-2.62
2022-12-12T11:14:28.074Z,-2.88
2022-12-12T11:19:39.963Z,-2.86
2022-12-12T11:24:46.487Z,-2.91
2022-12-12T11:29:52.603Z,-2.96
2022-12-12T11:34:59.315Z,-2.75
2022-12-12T11:40:02.526Z,-2.97
2022-12-12T11:45:20.891Z,-2.74
2022-12-12T11:50:27.124Z,-2.84
2022-12-12T11:55:40.505Z,-3.15
2022-12-12T12:00:50.709Z,-2.73
2022-12-12T12:06:09.751Z,-2.52
2022-12-12T12:11:22.781Z,-2.50
2022-12-12T12:16:36.682Z,-2.72
2022-12-12T12:21:49.107Z,-2.93
2022-12-12T12:27:02.055Z,-2.77
2022-12-12T12:32:13.974Z,-2.65
2022-12-12T12:37:32.986Z,-2.69
2022-12-12T12:42:51.671Z,-2.57
2022-12-12T12:47:59.976Z,-2.76
2022-12-12T12:53:08.343Z,-2.57
2022-12-12T12:58:19.707Z,-2.57
2022-12-12T13:03:28.566Z,-2.78
2022-12-12T13:08:40.795Z,-2.75
2022-12-12T13:13:48.942Z,-2.91
2022-12-12T13:19:03.593Z,-3.08
2022-12-12T13:24:15.119Z,-2.91
2022-12-12T13:29:33.741Z,-2.87
2022-12-12T13:34:42.194Z,-2.97
2022-12-12T13:39:47.739Z,-3.03
2022-12-12T13:44:51.054Z,-3.04
2022-12-12T13:49:55.496Z,-3.03
2022-12-12T13:55:22.415Z,-3.08
2022-12-12T14:00:27.111Z,-2.80
2022-12-12T14:05:32.628Z,-2.96
2022-12-12T14:10:40.870Z,-3.03
2022-12-12T14:15:45.527Z,-2.98
2022-12-12T14:20:59.726Z,-2.94
2022-12-12T14:26:42.405Z,-3.40
2022-12-12T14:31:54.135Z,-3.06
2022-12-12T14:37:29.793Z,-3.11
2022-12-12T14:43:15.319Z,-3.26
2022-12-12T14:48:20.212Z,-3.44
2022-12-12T14:53:25.806Z,-3.59
2022-12-12T14:58:32.275Z,-3.69
2022-12-12T15:03:40.325Z,-3.57
2022-12-12T15:08:43.714Z,-3.56
2022-12-12T15:13:56.456Z,-3.55
2022-12-12T15:19:01.017Z,-3.95
2022-12-12T15:24:04.139Z,-4.31
2022-12-12T15:29:09.619Z,-4.38
2022-12-12T15:34:31.531Z,-4.70
2022-12-12T15:39:34.693Z,-4.61
2022-12-12T15:44:39.511Z,-4.78
2022-12-12T15:49:44.839Z,-4.69
2022-12-12T15:54:51.059Z,-4.87
2022-12-12T15:59:58.260Z,-5.27
2022-12-12T16:05:05.832Z,-4.89
2022-12-12T16:10:29.918Z,-5.29
2022-12-12T16:15:36.850Z,-5.20
2022-12-12T16:20:46.314Z,-5.26
2022-12-12T16:25:49.498Z,-5.13
2022-12-12T16:30:57.232Z,-5.00
2022-12-12T16:36:01.669Z,-4.96
2022-12-12T16:41:10.228Z,-5.11
2022-12-12T16:46:20.079Z,-5.21
2022-12-12T16:51:28.935Z,-5.07
2022-12-12T16:56:32.059Z,-5.18
2022-12-12T17:01:38.923Z,-5.05
2022-12-12T17:06:42.009Z,-4.98
2022-12-12T17:11:45.622Z,-4.96
2022-12-12T17:16:50.078Z,-5.18
2022-12-12T17:21:53.008Z,-5.14
2022-12-12T17:26:55.970Z,-5.14
2022-12-12T17:32:00.292Z,-5.03
2022-12-12T17:37:03.304Z,-5.11
2022-12-12T17:42:06.430Z,-5.21
2022-12-12T17:47:10.697Z,-5.28
2022-12-12T17:52:13.822Z,-5.13
2022-12-12T17:57:16.773Z,-5.03
2022-12-12T18:02:21.458Z,-5.02
2022-12-12T18:07:24.454Z,-5.19
2022-12-12T18:12:27.418Z,-5.06
2022-12-12T18:17:31.736Z,-5.46
2022-12-12T18:22:36.488Z,-5.46
2022-12-12T18:27:40.337Z,-5.56
2022-12-12T18:32:46.271Z,-5.42
2022-12-12T18:37:49.352Z,-5.24
2022-12-12T18:42:52.329Z,-5.05
2022-12-12T18:47:56.692Z,-5.19
2022-12-12T18:52:59.634Z,-5.08
2022-12-12T18:58:03.979Z,-5.27
2022-12-12T19:03:08.271Z,-5.22
2022-12-12T19:08:12.276Z,-5.26
2022-12-12T19:13:15.191Z,-5.17
2022-12-12T19:18:19.642Z,-5.23
2022-12-12T19:23:22.588Z,-5.03
2022-12-12T19:28:25.508Z,-4.91
2022-12-12T19:33:29.882Z,-4.80
2022-12-12T19:38:32.822Z,-4.91
2022-12-12T19:43:36.124Z,-4.79
2022-12-12T19:48:41.053Z,-4.67
2022-12-12T19:53:46.144Z,-4.37
2022-12-12T19:58:50.240Z,-4.33
2022-12-12T20:03:56.275Z,-4.70
2022-12-12T20:09:00.101Z,-4.75
2022-12-12T20:14:03.328Z,-4.84
2022-12-12T20:19:07.729Z,-4.84
2022-12-12T20:24:10.959Z,-4.92
2022-12-12T20:29:15.252Z,-4.93
2022-12-12T20:34:24.885Z,-4.87
2022-12-12T20:39:28.162Z,-4.90
2022-12-12T20:44:31.094Z,-4.97
2022-12-12T20:49:35.405Z,-4.97
2022-12-12T20:54:38.343Z,-4.90
2022-12-12T20:59:41.260Z,-4.91
2022-12-12T21:04:45.686Z,-5.04
2022-12-12T21:09:48.595Z,-5.02
2022-12-12T21:14:51.495Z,-4.92
2022-12-12T21:19:55.805Z,-4.96
2022-12-12T21:24:58.704Z,-5.08
2022-12-12T21:30:01.611Z,-5.09
2022-12-12T21:35:06.634Z,-5.08
2022-12-12T21:40:11.054Z,-5.04
2022-12-12T21:45:16.454Z,-5.09
2022-12-12T21:50:22.772Z,-5.12
2022-12-12T21:55:27.683Z,-5.16
2022-12-12T22:00:30.695Z,-5.11
2022-12-12T22:05:34.955Z,-5.01
2022-12-12T22:10:38.323Z,-5.14
2022-12-12T22:15:41.274Z,-5.11
2022-12-12T22:20:46.268Z,-5.11
2022-12-12T22:25:49.242Z,-5.03
2022-12-12T22:30:52.207Z,-4.91
2022-12-12T22:35:59.526Z,-4.88
2022-12-12T22:41:02.512Z,-4.92
2022-12-12T22:46:07.574Z,-5.03
2022-12-12T22:51:16.870Z,-5.00
2022-12-12T22:56:19.930Z,-5.07
2022-12-12T23:01:25.339Z,-5.03
2022-12-12T23:06:31.242Z,-5.17
2022-12-12T23:11:35.720Z,-5.32
2022-12-12T23:16:38.727Z,-5.19
2022-12-12T23:21:43.446Z,-5.25
2022-12-12T23:26:47.261Z,-5.33
2022-12-12T23:31:50.447Z,-5.34
2022-12-12T23:36:56.715Z,-5.48
2022-12-12T23:41:59.584Z,-5.35
2022-12-12T23:47:03.835Z,-5.32
2022-12-12T23:52:08.128Z,-5.33
2022-12-12T23:57:12.156Z,-5.47
